createdAt,value
2017-06-02T00:00:45.746Z,1013.2
2017-06-02T00:01:45.727Z,1013.22
2017-06-02T00:02:45.704Z,1013.21
2017-06-02T00:03:45.684Z,1013.2
2017-06-02T00:04:45.665Z,1013.21
2017-06-02T00:05:45.644Z,1013.21
2017-06-02T00:06:45.626Z,1013.2
2017-06-02T00:07:45.605Z,1013.16
2017-06-02T00:08:45.584Z,1013.15
2017-06-02T00:09:45.564Z,1013.15
2017-06-02T00:10:45.592Z,1013.13
2017-06-02T00:11:45.521Z,1013.12
2017-06-02T00:12:45.502Z,1013.1
2017-06-02T00:13:45.482Z,1013.09
2017-06-02T00:14:45.463Z,1013.11
2017-06-02T00:15:45.443Z,1013.06
2017-06-02T00:16:45.422Z,1013.05
2017-06-02T00:17:45.401Z,1013.05
2017-06-02T00:18:45.380Z,1012.99
2017-06-02T00:19:45.367Z,1012.99
2017-06-02T00:20:45.342Z,1012.99
2017-06-02T00:21:45.322Z,1012.99
2017-06-02T00:22:45.302Z,1012.94
2017-06-02T00:23:45.280Z,1012.99
2017-06-02T00:24:45.260Z,1012.98
2017-06-02T00:25:45.241Z,1012.95
2017-06-02T00:26:45.220Z,1012.96
2017-06-02T00:27:45.200Z,1012.96
2017-06-02T00:28:45.180Z,1012.94
2017-06-02T00:29:45.157Z,1012.93
2017-06-02T00:30:45.139Z,1012.88
2017-06-02T00:31:45.118Z,1012.89
2017-06-02T00:32:45.101Z,1012.89
2017-06-02T00:33:45.077Z,1012.87
2017-06-02T00:34:45.058Z,1012.87
2017-06-02T00:35:45.037Z,1012.87
2017-06-02T00:36:45.067Z,1012.85
2017-06-02T00:37:44.995Z,1012.84
2017-06-02T00:38:44.980Z,1012.84
2017-06-02T00:39:44.959Z,1012.82
2017-06-02T00:40:44.935Z,1012.83
2017-06-02T00:41:44.919Z,1012.83
2017-06-02T00:42:44.895Z,1012.81
2017-06-02T00:43:44.874Z,1012.76
2017-06-02T00:44:44.856Z,1012.79
2017-06-02T00:45:44.833Z,1012.77
2017-06-02T00:46:44.813Z,1012.74
2017-06-02T00:47:44.793Z,1012.77
2017-06-02T00:48:45.025Z,1012.73
2017-06-02T00:49:44.752Z,1012.72
2017-06-02T00:50:44.733Z,1012.74
2017-06-02T00:51:44.714Z,1012.69
2017-06-02T00:52:44.692Z,1012.69
2017-06-02T00:53:44.673Z,1012.72
2017-06-02T00:54:44.652Z,1012.7
2017-06-02T00:55:44.631Z,1012.74
2017-06-02T00:56:44.614Z,1012.74
2017-06-02T00:57:44.592Z,1012.73
2017-06-02T00:58:44.573Z,1012.72
2017-06-02T00:59:44.552Z,1012.75
2017-06-02T01:00:44.529Z,1012.68
2017-06-02T01:01:44.507Z,1012.68
2017-06-02T01:02:44.490Z,1012.69
2017-06-02T01:03:44.469Z,1012.68
2017-06-02T01:04:44.450Z,1012.71
2017-06-02T01:05:44.428Z,1012.72
2017-06-02T01:06:44.410Z,1012.71
2017-06-02T01:07:44.388Z,1012.75
2017-06-02T01:08:44.372Z,1012.69
2017-06-02T01:09:44.348Z,1012.68
2017-06-02T01:10:44.327Z,1012.66
2017-06-02T01:11:44.307Z,1012.63
2017-06-02T01:12:44.287Z,1012.62
2017-06-02T01:13:44.266Z,1012.62
2017-06-02T01:14:44.248Z,1012.62
2017-06-02T01:15:44.224Z,1012.6
2017-06-02T01:16:44.206Z,1012.61
2017-06-02T01:17:44.186Z,1012.62
2017-06-02T01:18:44.169Z,1012.63
2017-06-02T01:19:44.150Z,1012.65
2017-06-02T01:20:44.126Z,1012.67
2017-06-02T01:21:44.103Z,1012.65
2017-06-02T01:22:44.082Z,1012.69
2017-06-02T01:23:44.062Z,1012.65
2017-06-02T01:24:44.091Z,1012.63
2017-06-02T01:25:44.021Z,1012.63
2017-06-02T01:26:44.001Z,1012.61
2017-06-02T01:27:43.980Z,1012.64
2017-06-02T01:28:43.960Z,1012.68
2017-06-02T01:29:43.939Z,1012.64
2017-06-02T01:30:43.922Z,1012.63
2017-06-02T01:31:43.893Z,1012.66
2017-06-02T01:32:43.880Z,1012.6
2017-06-02T01:33:43.858Z,1012.61
2017-06-02T01:34:43.839Z,1012.59
2017-06-02T01:35:43.817Z,1012.56
2017-06-02T01:36:43.796Z,1012.57
2017-06-02T01:37:43.776Z,1012.57
2017-06-02T01:38:43.756Z,1012.54
2017-06-02T01:39:43.741Z,1012.57
2017-06-02T01:40:43.716Z,1012.57
2017-06-02T01:41:43.694Z,1012.6
2017-06-02T01:42:43.674Z,1012.52
2017-06-02T01:43:43.652Z,1012.59
2017-06-02T01:44:43.631Z,1012.58
2017-06-02T01:45:43.612Z,1012.58
2017-06-02T01:46:43.593Z,1012.51
2017-06-02T01:47:43.572Z,1012.51
2017-06-02T01:48:43.550Z,1012.52
2017-06-02T01:49:43.529Z,1012.54
2017-06-02T01:50:43.509Z,1012.51
2017-06-02T01:51:43.488Z,1012.5
2017-06-02T01:52:43.467Z,1012.48
2017-06-02T01:53:43.446Z,1012.42
2017-06-02T01:54:43.427Z,1012.48
2017-06-02T01:55:43.406Z,1012.43
2017-06-02T01:56:43.392Z,1012.49
2017-06-02T01:57:43.365Z,1012.48
2017-06-02T01:58:43.350Z,1012.42
2017-06-02T01:59:43.327Z,1012.44
2017-06-02T02:00:43.303Z,1012.41
2017-06-02T02:01:43.282Z,1012.43
2017-06-02T02:02:43.260Z,1012.42
2017-06-02T02:03:43.241Z,1012.4
2017-06-02T02:04:43.220Z,1012.41
2017-06-02T02:05:43.199Z,1012.44
2017-06-02T02:06:43.183Z,1012.44
2017-06-02T02:07:43.159Z,1012.42
2017-06-02T02:08:43.140Z,1012.42
2017-06-02T02:09:43.122Z,1012.45
2017-06-02T02:10:43.097Z,1012.41
2017-06-02T02:11:43.076Z,1012.4
2017-06-02T02:12:43.055Z,1012.39
2017-06-02T02:13:43.334Z,1012.41
2017-06-02T02:14:43.013Z,1012.39
2017-06-02T02:15:42.993Z,1012.42
2017-06-02T02:16:42.971Z,1012.39
2017-06-02T02:17:42.950Z,1012.38
2017-06-02T02:18:42.930Z,1012.37
2017-06-02T02:19:42.909Z,1012.38
2017-06-02T02:20:42.891Z,1012.39
2017-06-02T02:21:42.866Z,1012.4
2017-06-02T02:22:42.848Z,1012.4
2017-06-02T02:23:42.826Z,1012.43
2017-06-02T02:24:42.810Z,1012.41
2017-06-02T02:25:42.790Z,1012.41
2017-06-02T02:26:42.764Z,1012.41
2017-06-02T02:27:42.743Z,1012.41
2017-06-02T02:28:42.723Z,1012.43
2017-06-02T02:29:42.752Z,1012.39
2017-06-02T02:30:42.683Z,1012.39
2017-06-02T02:31:42.661Z,1012.41
2017-06-02T02:32:42.645Z,1012.43
2017-06-02T02:33:42.621Z,1012.42
2017-06-02T02:34:42.606Z,1012.41
2017-06-02T02:35:42.583Z,1012.33
2017-06-02T02:36:42.562Z,1012.38
2017-06-02T02:37:42.540Z,1012.34
2017-06-02T02:38:42.517Z,1012.35
2017-06-02T02:39:42.494Z,1012.38
2017-06-02T02:40:42.474Z,1012.39
2017-06-02T02:41:42.464Z,1012.35
2017-06-02T02:42:42.433Z,1012.39
2017-06-02T02:43:42.415Z,1012.36
2017-06-02T02:44:42.392Z,1012.32
2017-06-02T02:45:42.370Z,1012.38
2017-06-02T02:46:42.348Z,1012.34
2017-06-02T02:47:42.328Z,1012.35
2017-06-02T02:48:42.309Z,1012.38
2017-06-02T02:49:42.288Z,1012.33
2017-06-02T02:50:42.268Z,1012.37
2017-06-02T02:51:42.245Z,1012.37
2017-06-02T02:52:42.226Z,1012.33
2017-06-02T02:53:42.203Z,1012.33
2017-06-02T02:54:42.184Z,1012.3
2017-06-02T02:55:42.163Z,1012.3
2017-06-02T02:56:42.141Z,1012.3
2017-06-02T02:57:42.120Z,1012.27
2017-06-02T02:58:42.101Z,1012.28
2017-06-02T02:59:42.079Z,1012.3
2017-06-02T03:00:42.062Z,1012.3
2017-06-02T03:01:42.040Z,1012.29
2017-06-02T03:02:42.016Z,1012.28
2017-06-02T03:03:42.046Z,1012.27
2017-06-02T03:04:41.974Z,1012.28
2017-06-02T03:05:41.954Z,1012.27
2017-06-02T03:06:41.934Z,1012.27
2017-06-02T03:07:41.912Z,1012.25
2017-06-02T03:08:41.891Z,1012.23
2017-06-02T03:09:41.870Z,1012.21
2017-06-02T03:10:41.853Z,1012.27
2017-06-02T03:11:41.831Z,1012.19
2017-06-02T03:12:41.807Z,1012.17
2017-06-02T03:13:41.787Z,1012.16
2017-06-02T03:14:41.765Z,1012.12
2017-06-02T03:15:41.746Z,1012.16
2017-06-02T03:16:41.723Z,1012.15
2017-06-02T03:17:41.703Z,1012.16
2017-06-02T03:18:41.681Z,1012.15
2017-06-02T03:19:41.661Z,1012.17
2017-06-02T03:20:41.640Z,1012.17
2017-06-02T03:21:41.618Z,1012.14
2017-06-02T03:22:41.596Z,1012.13
2017-06-02T03:23:41.576Z,1012.13
2017-06-02T03:24:41.555Z,1012.09
2017-06-02T03:25:41.537Z,1012.09
2017-06-02T03:26:41.515Z,1012.1
2017-06-02T03:27:41.494Z,1012.08
2017-06-02T03:28:41.473Z,1012.07
2017-06-02T03:29:41.452Z,1012.08
2017-06-02T03:30:41.430Z,1012.1
2017-06-02T03:31:41.409Z,1012.08
2017-06-02T03:32:41.393Z,1012.1
2017-06-02T03:33:41.368Z,1012.1
2017-06-02T03:34:41.345Z,1012.08
2017-06-02T03:35:41.328Z,1012.1
2017-06-02T03:36:41.305Z,1012.06
2017-06-02T03:37:41.283Z,1012.06
2017-06-02T03:38:41.262Z,1012.06
2017-06-02T03:39:41.244Z,1012.04
2017-06-02T03:40:41.222Z,1012.04
2017-06-02T03:41:41.203Z,1012.05
2017-06-02T03:42:41.178Z,1012.09
2017-06-02T03:43:41.158Z,1012.03
2017-06-02T03:44:41.137Z,1012.01
2017-06-02T03:45:41.116Z,1012.08
2017-06-02T03:46:41.095Z,1012.05
2017-06-02T03:47:41.075Z,1012.04
2017-06-02T03:48:41.053Z,1012.07
2017-06-02T03:49:41.082Z,1012.08
2017-06-02T03:50:41.012Z,1012.15
2017-06-02T03:51:40.991Z,1012.09
2017-06-02T03:52:40.969Z,1012.13
2017-06-02T03:53:40.998Z,1012.1
2017-06-02T03:54:40.928Z,1012.14
2017-06-02T03:55:40.907Z,1012.1
2017-06-02T03:56:40.886Z,1012.11
2017-06-02T03:57:40.869Z,1012.11
2017-06-02T03:58:40.844Z,1012.07
2017-06-02T03:59:40.824Z,1012.07
2017-06-02T04:00:40.806Z,1012.06
2017-06-02T04:01:40.782Z,1012.09
2017-06-02T04:02:40.761Z,1012.08
2017-06-02T04:03:40.994Z,1012.12
2017-06-02T04:04:40.721Z,1012.08
2017-06-02T04:05:40.701Z,1012.06
2017-06-02T04:06:40.680Z,1012.04
2017-06-02T04:07:40.655Z,1012.01
2017-06-02T04:08:40.640Z,1012.02
2017-06-02T04:09:40.622Z,1011.99
2017-06-02T04:10:40.600Z,1012.03
2017-06-02T04:11:40.578Z,1012.01
2017-06-02T04:12:40.559Z,1011.99
2017-06-02T04:13:40.544Z,1012
2017-06-02T04:14:40.518Z,1011.99
2017-06-02T04:15:40.499Z,1011.98
2017-06-02T04:16:40.478Z,1011.96
2017-06-02T04:17:40.459Z,1011.94
2017-06-02T04:18:40.437Z,1011.99
2017-06-02T04:19:40.417Z,1012.02
2017-06-02T04:20:40.399Z,1011.97
2017-06-02T04:21:40.377Z,1011.97
2017-06-02T04:22:40.360Z,1011.99
2017-06-02T04:23:40.338Z,1011.97
2017-06-02T04:24:40.320Z,1011.98
2017-06-02T04:25:40.305Z,1012
2017-06-02T04:26:40.282Z,1012.01
2017-06-02T04:27:40.264Z,1012.01
2017-06-02T04:28:40.245Z,1012.02
2017-06-02T04:29:40.221Z,1012.03
2017-06-02T04:30:40.203Z,1012.06
2017-06-02T04:31:40.185Z,1012.02
2017-06-02T04:32:40.164Z,1012.04
2017-06-02T04:33:40.146Z,1011.99
2017-06-02T04:34:40.177Z,1012.01
2017-06-02T04:35:40.107Z,1012.04
2017-06-02T04:36:40.090Z,1012.01
2017-06-02T04:37:40.071Z,1012.04
2017-06-02T04:38:40.051Z,1012.03
2017-06-02T04:39:40.032Z,1012.01
2017-06-02T04:40:40.013Z,1012.02
2017-06-02T04:41:39.993Z,1012.06
2017-06-02T04:42:39.974Z,1011.97
2017-06-02T04:43:39.955Z,1011.96
2017-06-02T04:44:39.936Z,1011.91
2017-06-02T04:45:39.969Z,1011.95
2017-06-02T04:46:39.899Z,1011.94
2017-06-02T04:47:39.880Z,1011.91
2017-06-02T04:48:39.861Z,1011.91
2017-06-02T04:49:39.844Z,1011.91
2017-06-02T04:50:39.825Z,1011.9
2017-06-02T04:51:39.815Z,1011.91
2017-06-02T04:52:39.788Z,1011.98
2017-06-02T04:53:39.772Z,1011.95
2017-06-02T04:54:39.749Z,1011.94
2017-06-02T04:55:39.733Z,1011.94
2017-06-02T04:56:39.714Z,1011.93
2017-06-02T04:57:39.696Z,1011.96
2017-06-02T04:58:39.681Z,1011.93
2017-06-02T04:59:39.658Z,1011.98
2017-06-02T05:00:39.639Z,1011.97
2017-06-02T05:01:39.621Z,1012
2017-06-02T05:02:39.602Z,1012.01
2017-06-02T05:03:39.584Z,1011.96
2017-06-02T05:04:39.564Z,1012
2017-06-02T05:05:39.546Z,1011.95
2017-06-02T05:06:39.529Z,1011.97
2017-06-02T05:07:39.509Z,1011.99
2017-06-02T05:08:39.492Z,1011.98
2017-06-02T05:09:39.476Z,1011.98
2017-06-02T05:10:39.458Z,1011.98
2017-06-02T05:11:39.439Z,1011.96
2017-06-02T05:12:39.420Z,1011.95
2017-06-02T05:13:39.403Z,1011.96
2017-06-02T05:14:39.382Z,1011.91
2017-06-02T05:15:39.366Z,1011.87
2017-06-02T05:16:39.348Z,1011.92
2017-06-02T05:17:39.330Z,1011.89
2017-06-02T05:18:39.312Z,1011.85
2017-06-02T05:19:39.299Z,1011.92
2017-06-02T05:20:39.279Z,1011.94
2017-06-02T05:21:39.261Z,1011.9
2017-06-02T05:22:39.244Z,1011.96
2017-06-02T05:23:39.275Z,1011.93
2017-06-02T05:24:39.210Z,1011.93
2017-06-02T05:25:39.194Z,1011.92
2017-06-02T05:26:39.477Z,1011.9
2017-06-02T05:27:39.158Z,1011.92
2017-06-02T05:28:39.144Z,1011.96
2017-06-02T05:29:39.126Z,1011.96
2017-06-02T05:30:39.113Z,1011.88
2017-06-02T05:31:39.093Z,1011.92
2017-06-02T05:32:39.079Z,1011.92
2017-06-02T05:33:39.064Z,1011.88
2017-06-02T05:34:39.046Z,1011.95
2017-06-02T05:35:39.032Z,1011.97
2017-06-02T05:36:39.011Z,1011.95
2017-06-02T05:37:38.999Z,1011.97
2017-06-02T05:38:38.990Z,1011.98
2017-06-02T05:39:38.969Z,1011.94
2017-06-02T05:40:38.954Z,1011.95
2017-06-02T05:41:38.947Z,1011.98
2017-06-02T05:42:38.924Z,1011.98
2017-06-02T05:43:38.915Z,1011.97
2017-06-02T05:44:38.958Z,1011.96
2017-06-02T05:45:38.880Z,1012.02
2017-06-02T05:46:38.861Z,1011.98
2017-06-02T05:47:38.848Z,1011.96
2017-06-02T05:48:38.836Z,1011.96
2017-06-02T05:49:38.820Z,1011.95
2017-06-02T05:50:38.807Z,1011.93
2017-06-02T05:51:38.793Z,1011.94
2017-06-02T05:52:38.778Z,1011.94
2017-06-02T05:53:38.764Z,1011.93
2017-06-02T05:54:38.751Z,1011.91
2017-06-02T05:55:38.740Z,1011.9
2017-06-02T05:56:38.724Z,1011.91
2017-06-02T05:57:38.708Z,1011.85
2017-06-02T05:58:38.697Z,1011.87
2017-06-02T05:59:38.687Z,1011.88
2017-06-02T06:00:38.672Z,1011.88
2017-06-02T06:01:38.657Z,1011.91
2017-06-02T06:02:38.644Z,1011.89
2017-06-02T06:03:38.634Z,1011.85
2017-06-02T06:04:38.617Z,1011.88
2017-06-02T06:05:38.604Z,1011.88
2017-06-02T06:06:38.593Z,1011.85
2017-06-02T06:07:38.577Z,1011.88
2017-06-02T06:08:38.566Z,1011.87
2017-06-02T06:09:38.555Z,1011.88
2017-06-02T06:10:38.546Z,1011.87
2017-06-02T06:11:38.529Z,1011.89
2017-06-02T06:12:38.517Z,1011.93
2017-06-02T06:13:38.504Z,1011.91
2017-06-02T06:14:38.492Z,1011.89
2017-06-02T06:15:38.480Z,1011.94
2017-06-02T06:16:38.468Z,1011.96
2017-06-02T06:17:38.460Z,1011.93
2017-06-02T06:18:38.444Z,1011.94
2017-06-02T06:19:38.435Z,1011.91
2017-06-02T06:20:38.420Z,1011.96
2017-06-02T06:21:38.413Z,1011.9
2017-06-02T06:22:38.397Z,1011.91
2017-06-02T06:23:38.386Z,1011.9
2017-06-02T06:24:38.375Z,1011.89
2017-06-02T06:25:38.361Z,1011.9
2017-06-02T06:26:38.350Z,1011.88
2017-06-02T06:27:38.341Z,1011.88
2017-06-02T06:28:38.330Z,1011.92
2017-06-02T06:29:38.316Z,1011.9
2017-06-02T06:30:38.305Z,1011.89
2017-06-02T06:31:38.295Z,1011.87
2017-06-02T06:32:38.288Z,1011.86
2017-06-02T06:33:38.276Z,1011.84
2017-06-02T06:34:38.264Z,1011.84
2017-06-02T06:35:38.249Z,1011.83
2017-06-02T06:36:38.290Z,1011.82
2017-06-02T06:37:38.231Z,1011.85
2017-06-02T06:38:38.222Z,1011.85
2017-06-02T06:39:38.209Z,1011.86
2017-06-02T06:40:38.197Z,1011.86
2017-06-02T06:41:38.187Z,1011.82
2017-06-02T06:42:38.183Z,1011.84
2017-06-02T06:43:38.167Z,1011.8
2017-06-02T06:44:38.158Z,1011.83
2017-06-02T06:45:38.147Z,1011.83
2017-06-02T06:46:38.138Z,1011.83
2017-06-02T06:47:38.123Z,1011.87
2017-06-02T06:48:38.116Z,1011.81
2017-06-02T06:49:38.110Z,1011.78
2017-06-02T06:50:38.097Z,1011.77
2017-06-02T06:51:38.086Z,1011.81
2017-06-02T06:52:38.077Z,1011.78
2017-06-02T06:53:38.066Z,1011.75
2017-06-02T06:54:38.060Z,1011.83
2017-06-02T06:55:38.048Z,1011.8
2017-06-02T06:56:38.039Z,1011.75
2017-06-02T06:57:38.037Z,1011.75
2017-06-02T06:58:38.019Z,1011.75
2017-06-02T06:59:38.011Z,1011.77
2017-06-02T07:00:38.053Z,1011.76
2017-06-02T07:01:37.994Z,1011.78
2017-06-02T07:02:38.034Z,1011.77
2017-06-02T07:03:37.976Z,1011.73
2017-06-02T07:04:37.968Z,1011.72
2017-06-02T07:05:37.959Z,1011.78
2017-06-02T07:06:37.950Z,1011.77
2017-06-02T07:07:37.939Z,1011.78
2017-06-02T07:08:37.928Z,1011.8
2017-06-02T07:09:37.918Z,1011.83
2017-06-02T07:10:37.907Z,1011.72
2017-06-02T07:11:37.898Z,1011.81
2017-06-02T07:12:37.886Z,1011.75
2017-06-02T07:13:37.875Z,1011.77
2017-06-02T07:14:37.864Z,1011.72
2017-06-02T07:15:37.855Z,1011.72
2017-06-02T07:16:37.842Z,1011.73
2017-06-02T07:17:37.832Z,1011.72
2017-06-02T07:18:37.824Z,1011.67
2017-06-02T07:19:37.810Z,1011.71
2017-06-02T07:20:37.797Z,1011.76
2017-06-02T07:21:37.784Z,1011.75
2017-06-02T07:22:37.774Z,1011.72
2017-06-02T07:23:37.764Z,1011.76
2017-06-02T07:24:37.748Z,1011.69
2017-06-02T07:25:37.737Z,1011.76
2017-06-02T07:26:37.725Z,1011.67
2017-06-02T07:27:37.712Z,1011.71
2017-06-02T07:28:37.701Z,1011.7
2017-06-02T07:29:37.690Z,1011.72
2017-06-02T07:30:37.680Z,1011.69
2017-06-02T07:31:37.667Z,1011.72
2017-06-02T07:32:37.702Z,1011.76
2017-06-02T07:33:37.646Z,1011.7
2017-06-02T07:34:37.633Z,1011.69
2017-06-02T07:35:37.619Z,1011.72
2017-06-02T07:36:37.613Z,1011.7
2017-06-02T07:37:37.600Z,1011.71
2017-06-02T07:38:37.591Z,1011.68
2017-06-02T07:39:37.578Z,1011.69
2017-06-02T07:40:37.568Z,1011.69
2017-06-02T07:41:37.556Z,1011.67
2017-06-02T07:42:37.544Z,1011.67
2017-06-02T07:43:37.534Z,1011.67
2017-06-02T07:44:37.528Z,1011.65
2017-06-02T07:45:37.518Z,1011.62
2017-06-02T07:46:37.505Z,1011.71
2017-06-02T07:47:37.496Z,1011.61
2017-06-02T07:48:37.487Z,1011.63
2017-06-02T07:49:37.476Z,1011.68
2017-06-02T07:50:37.468Z,1011.62
2017-06-02T07:51:37.455Z,1011.65
2017-06-02T07:52:37.446Z,1011.64
2017-06-02T07:53:37.438Z,1011.67
2017-06-02T07:54:37.432Z,1011.69
2017-06-02T07:55:37.417Z,1011.69
2017-06-02T07:56:37.407Z,1011.7
2017-06-02T07:57:37.396Z,1011.67
2017-06-02T07:58:37.392Z,1011.67
2017-06-02T07:59:37.379Z,1011.65
2017-06-02T08:00:37.423Z,1011.65
2017-06-02T08:01:37.352Z,1011.65
2017-06-02T08:02:37.342Z,1011.64
2017-06-02T08:03:37.336Z,1011.64
2017-06-02T08:04:37.321Z,1011.63
2017-06-02T08:05:37.310Z,1011.64
2017-06-02T08:06:37.353Z,1011.67
2017-06-02T08:07:37.290Z,1011.63
2017-06-02T08:08:37.278Z,1011.66
2017-06-02T08:09:37.267Z,1011.71
2017-06-02T08:10:37.258Z,1011.69
2017-06-02T08:11:37.242Z,1011.65
2017-06-02T08:12:37.234Z,1011.67
2017-06-02T08:13:37.222Z,1011.62
2017-06-02T08:14:37.209Z,1011.62
2017-06-02T08:15:37.203Z,1011.65
2017-06-02T08:16:37.193Z,1011.61
2017-06-02T08:17:37.186Z,1011.69
2017-06-02T08:18:37.171Z,1011.61
2017-06-02T08:19:37.162Z,1011.66
2017-06-02T08:20:37.153Z,1011.67
2017-06-02T08:21:37.141Z,1011.63
2017-06-02T08:22:37.131Z,1011.63
2017-06-02T08:23:37.120Z,1011.64
2017-06-02T08:24:37.111Z,1011.77
2017-06-02T08:25:37.098Z,1011.64
2017-06-02T08:26:37.089Z,1011.66
2017-06-02T08:27:37.083Z,1011.68
2017-06-02T08:28:37.068Z,1011.66
2017-06-02T08:29:37.059Z,1011.66
2017-06-02T08:30:37.053Z,1011.69
2017-06-02T08:31:37.042Z,1011.63
2017-06-02T08:32:37.030Z,1011.64
2017-06-02T08:33:37.018Z,1011.64
2017-06-02T08:34:37.011Z,1011.61
2017-06-02T08:35:36.997Z,1011.67
2017-06-02T08:36:36.986Z,1011.62
2017-06-02T08:37:36.980Z,1011.63
2017-06-02T08:38:36.966Z,1011.66
2017-06-02T08:39:36.956Z,1011.62
2017-06-02T08:40:36.951Z,1011.6
2017-06-02T08:41:36.942Z,1011.6
2017-06-02T08:42:36.928Z,1011.61
2017-06-02T08:43:36.918Z,1011.59
2017-06-02T08:44:36.911Z,1011.59
2017-06-02T08:45:36.898Z,1011.6
2017-06-02T08:46:36.895Z,1011.67
2017-06-02T08:47:36.883Z,1011.68
2017-06-02T08:48:36.874Z,1011.7
2017-06-02T08:49:36.867Z,1011.64
2017-06-02T08:50:36.857Z,1011.64
2017-06-02T08:51:36.901Z,1011.61
2017-06-02T08:52:36.841Z,1011.62
2017-06-02T08:53:36.834Z,1011.59
2017-06-02T08:54:36.827Z,1011.61
2017-06-02T08:55:36.824Z,1011.53
2017-06-02T08:56:36.816Z,1011.6
2017-06-02T08:57:36.803Z,1011.6
2017-06-02T08:58:36.794Z,1011.61
2017-06-02T08:59:36.785Z,1011.62
2017-06-02T09:00:36.779Z,1011.64
2017-06-02T09:01:36.772Z,1011.7
2017-06-02T09:02:36.759Z,1011.67
2017-06-02T09:03:36.755Z,1011.62
2017-06-02T09:04:36.744Z,1011.69
2017-06-02T09:05:36.733Z,1011.66
2017-06-02T09:06:36.730Z,1011.65
2017-06-02T09:07:36.721Z,1011.7
2017-06-02T09:08:36.709Z,1011.69
2017-06-02T09:09:36.699Z,1011.71
2017-06-02T09:10:36.687Z,1011.75
2017-06-02T09:11:36.675Z,1011.71
2017-06-02T09:12:36.667Z,1011.68
2017-06-02T09:13:36.653Z,1011.7
2017-06-02T09:14:36.644Z,1011.66
2017-06-02T09:15:36.637Z,1011.72
2017-06-02T09:16:36.626Z,1011.7
2017-06-02T09:17:36.610Z,1011.72
2017-06-02T09:18:36.602Z,1011.7
2017-06-02T09:19:36.638Z,1011.72
2017-06-02T09:20:36.577Z,1011.71
2017-06-02T09:21:36.565Z,1011.65
2017-06-02T09:22:36.554Z,1011.72
2017-06-02T09:23:36.546Z,1011.63
2017-06-02T09:24:36.532Z,1011.66
2017-06-02T09:25:36.521Z,1011.59
2017-06-02T09:26:36.513Z,1011.54
2017-06-02T09:27:36.520Z,1011.59
2017-06-02T09:28:36.494Z,1011.6
2017-06-02T09:29:36.488Z,1011.61
2017-06-02T09:30:36.477Z,1011.58
2017-06-02T09:31:36.471Z,1011.52
2017-06-02T09:32:36.460Z,1011.48
2017-06-02T09:33:36.453Z,1011.54
2017-06-02T09:34:36.449Z,1011.58
2017-06-02T09:35:36.440Z,1011.57
2017-06-02T09:36:36.429Z,1011.47
2017-06-02T09:37:36.422Z,1011.49
2017-06-02T09:38:36.415Z,1011.54
2017-06-02T09:39:36.407Z,1011.54
2017-06-02T09:40:36.402Z,1011.53
2017-06-02T09:41:36.395Z,1011.45
2017-06-02T09:42:36.388Z,1011.52
2017-06-02T09:43:36.381Z,1011.49
2017-06-02T09:44:36.375Z,1011.53
2017-06-02T09:45:36.369Z,1011.44
2017-06-02T09:46:36.365Z,1011.5
2017-06-02T09:47:36.363Z,1011.54
2017-06-02T09:48:36.348Z,1011.46
2017-06-02T09:49:36.343Z,1011.46
2017-06-02T09:50:36.337Z,1011.49
2017-06-02T09:51:36.329Z,1011.49
2017-06-02T09:52:36.324Z,1011.54
2017-06-02T09:53:36.317Z,1011.48
2017-06-02T09:54:36.312Z,1011.5
2017-06-02T09:55:36.303Z,1011.47
2017-06-02T09:56:36.297Z,1011.46
2017-06-02T09:57:36.339Z,1011.46
2017-06-02T09:58:36.283Z,1011.46
2017-06-02T09:59:36.278Z,1011.45
2017-06-02T10:00:36.272Z,1011.47
2017-06-02T10:01:36.266Z,1011.46
2017-06-02T10:02:36.258Z,1011.47
2017-06-02T10:03:36.253Z,1011.46
2017-06-02T10:04:36.247Z,1011.4
2017-06-02T10:05:36.243Z,1011.44
2017-06-02T10:06:36.233Z,1011.4
2017-06-02T10:07:36.229Z,1011.32
2017-06-02T10:08:36.219Z,1011.37
2017-06-02T10:09:36.219Z,1011.41
2017-06-02T10:10:36.210Z,1011.35
2017-06-02T10:11:36.203Z,1011.41
2017-06-02T10:12:36.251Z,1011.34
2017-06-02T10:13:36.192Z,1011.35
2017-06-02T10:14:36.190Z,1011.34
2017-06-02T10:15:36.180Z,1011.33
2017-06-02T10:16:36.175Z,1011.3
2017-06-02T10:17:36.168Z,1011.32
2017-06-02T10:18:36.162Z,1011.29
2017-06-02T10:19:36.157Z,1011.34
2017-06-02T10:20:36.156Z,1011.33
2017-06-02T10:21:36.146Z,1011.21
2017-06-02T10:22:36.139Z,1011.23
2017-06-02T10:23:36.134Z,1011.25
2017-06-02T10:24:36.129Z,1011.21
2017-06-02T10:25:36.124Z,1011.2
2017-06-02T10:26:36.170Z,1011.22
2017-06-02T10:27:36.111Z,1011.22
2017-06-02T10:28:36.106Z,1011.19
2017-06-02T10:29:36.101Z,1011.22
2017-06-02T10:30:36.094Z,1011.23
2017-06-02T10:31:36.092Z,1011.23
2017-06-02T10:32:36.084Z,1011.25
2017-06-02T10:33:36.078Z,1011.22
2017-06-02T10:34:36.071Z,1011.2
2017-06-02T10:35:36.064Z,1011.16
2017-06-02T10:36:36.057Z,1011.15
2017-06-02T10:37:36.063Z,1011.17
2017-06-02T10:38:36.046Z,1011.14
2017-06-02T10:39:36.041Z,1011.08
2017-06-02T10:40:36.037Z,1011.16
2017-06-02T10:41:36.028Z,1011.09
2017-06-02T10:42:36.059Z,1011.17
2017-06-02T10:43:36.013Z,1011.14
2017-06-02T10:44:36.007Z,1011.14
2017-06-02T10:45:36.000Z,1011.14
2017-06-02T10:46:35.996Z,1011.2
2017-06-02T10:47:35.993Z,1011.13
2017-06-02T10:48:35.983Z,1011.1
2017-06-02T10:49:35.981Z,1011.09
2017-06-02T10:50:35.972Z,1011.09
2017-06-02T10:51:35.966Z,1011.1
2017-06-02T10:52:35.959Z,1011.11
2017-06-02T10:53:35.952Z,1011.06
2017-06-02T10:54:35.949Z,1011.06
2017-06-02T10:55:35.942Z,1011.05
2017-06-02T10:56:35.988Z,1011.03
2017-06-02T10:57:35.930Z,1011
2017-06-02T10:58:35.924Z,1011.01
2017-06-02T10:59:35.916Z,1011.01
2017-06-02T11:00:35.912Z,1011.01
2017-06-02T11:01:35.906Z,1011.02
2017-06-02T11:02:35.895Z,1010.97
2017-06-02T11:03:35.890Z,1010.94
2017-06-02T11:04:35.885Z,1010.91
2017-06-02T11:05:35.882Z,1010.92
2017-06-02T11:06:35.882Z,1010.92
2017-06-02T11:07:35.870Z,1010.83
2017-06-02T11:08:35.862Z,1010.86
2017-06-02T11:09:35.854Z,1010.87
2017-06-02T11:10:35.850Z,1010.82
2017-06-02T11:11:35.850Z,1010.83
2017-06-02T11:12:35.843Z,1010.76
2017-06-02T11:13:35.828Z,1010.79
2017-06-02T11:14:35.821Z,1010.85
2017-06-02T11:15:35.809Z,1010.8
2017-06-02T11:16:35.805Z,1010.89
2017-06-02T11:17:35.799Z,1010.86
2017-06-02T11:18:35.781Z,1010.83
2017-06-02T11:19:35.776Z,1010.8
2017-06-02T11:20:35.770Z,1010.85
2017-06-02T11:21:35.753Z,1010.88
2017-06-02T11:22:35.748Z,1010.86
2017-06-02T11:23:35.735Z,1010.85
2017-06-02T11:24:35.726Z,1010.84
2017-06-02T11:25:35.711Z,1010.81
2017-06-02T11:26:35.706Z,1010.84
2017-06-02T11:27:35.695Z,1010.81
2017-06-02T11:28:35.683Z,1010.78
2017-06-02T11:29:35.673Z,1010.77
2017-06-02T11:30:35.659Z,1010.83
2017-06-02T11:31:35.648Z,1010.81
2017-06-02T11:32:35.635Z,1010.78
2017-06-02T11:33:35.626Z,1010.74
2017-06-02T11:34:35.607Z,1010.71
2017-06-02T11:35:35.594Z,1010.74
2017-06-02T11:36:35.587Z,1010.71
2017-06-02T11:37:35.573Z,1010.72
2017-06-02T11:38:35.557Z,1010.71
2017-06-02T11:39:35.550Z,1010.79
2017-06-02T11:40:35.529Z,1010.72
2017-06-02T11:41:35.517Z,1010.73
2017-06-02T11:42:35.506Z,1010.66
2017-06-02T11:43:35.493Z,1010.66
2017-06-02T11:44:35.479Z,1010.66
2017-06-02T11:45:35.470Z,1010.61
2017-06-02T11:46:35.458Z,1010.62
2017-06-02T11:47:35.445Z,1010.65
2017-06-02T11:48:35.477Z,1010.61
2017-06-02T11:49:35.418Z,1010.62
2017-06-02T11:50:35.403Z,1010.62
2017-06-02T11:51:35.388Z,1010.59
2017-06-02T11:52:35.385Z,1010.57
2017-06-02T11:53:35.361Z,1010.59
2017-06-02T11:54:35.343Z,1010.61
2017-06-02T11:55:35.331Z,1010.57
2017-06-02T11:56:35.319Z,1010.55
2017-06-02T11:57:35.300Z,1010.58
2017-06-02T11:58:35.289Z,1010.58
2017-06-02T11:59:35.274Z,1010.54
2017-06-02T12:00:35.260Z,1010.57
2017-06-02T12:01:35.246Z,1010.55
2017-06-02T12:02:35.231Z,1010.58
2017-06-02T12:03:35.222Z,1010.54
2017-06-02T12:04:35.207Z,1010.54
2017-06-02T12:05:35.186Z,1010.52
2017-06-02T12:06:35.175Z,1010.52
2017-06-02T12:07:35.212Z,1010.52
2017-06-02T12:08:35.147Z,1010.48